createdAt,value
2018-06-29T00:00:13.647Z,19.93
2018-06-29T00:02:42.470Z,19.90
2018-06-29T00:05:11.311Z,19.87
2018-06-29T00:07:40.157Z,19.82
2018-06-29T00:10:09.024Z,19.72
2018-06-29T00:12:37.896Z,19.68
2018-06-29T00:18:38.084Z,19.54
2018-06-29T00:21:06.936Z,19.52
2018-06-29T00:23:35.791Z,19.47
2018-06-29T00:26:04.646Z,19.43
2018-06-29T00:28:33.569Z,19.56
2018-06-29T00:31:02.413Z,19.40
2018-06-29T00:33:31.244Z,19.35
2018-06-29T00:36:00.103Z,19.28
2018-06-29T00:38:47.019Z,19.25
2018-06-29T00:41:15.884Z,19.26
2018-06-29T00:43:44.725Z,19.26
2018-06-29T00:46:13.619Z,19.18
2018-06-29T00:48:42.465Z,19.12
2018-06-29T00:51:11.342Z,19.08
2018-06-29T00:53:40.289Z,19.02
2018-06-29T00:56:09.220Z,18.97
2018-06-29T00:58:38.118Z,18.92
2018-06-29T01:01:07.017Z,18.89
2018-06-29T01:03:35.911Z,18.88
2018-06-29T01:06:04.780Z,18.89
2018-06-29T01:08:33.678Z,18.89
2018-06-29T01:11:02.564Z,18.89
2018-06-29T01:13:31.459Z,18.86
2018-06-29T01:16:00.358Z,18.86
2018-06-29T01:18:29.332Z,18.82
2018-06-29T01:20:58.220Z,18.76
2018-06-29T01:23:33.521Z,18.66
2018-06-29T01:26:02.367Z,18.63
2018-06-29T01:28:31.269Z,18.65
2018-06-29T01:31:00.141Z,18.64
2018-06-29T01:33:29.032Z,18.61
2018-06-29T01:35:57.886Z,18.56
2018-06-29T01:38:26.807Z,18.50
2018-06-29T01:40:55.686Z,18.42
2018-06-29T01:43:24.508Z,18.37
2018-06-29T01:45:54.822Z,18.37
2018-06-29T01:48:23.652Z,18.38
2018-06-29T01:50:52.513Z,18.38
2018-06-29T01:53:21.361Z,18.33
2018-06-29T01:55:50.248Z,18.26
2018-06-29T01:58:19.074Z,18.26
2018-06-29T02:00:47.939Z,18.18
2018-06-29T02:03:16.836Z,18.18
2018-06-29T02:05:45.726Z,18.18
2018-06-29T02:08:16.971Z,18.33
2018-06-29T02:10:45.827Z,18.15
2018-06-29T02:13:14.652Z,18.11
2018-06-29T02:15:43.540Z,18.11
2018-06-29T02:18:12.415Z,18.07
2018-06-29T02:20:41.321Z,18.06
2018-06-29T02:23:10.213Z,18.04
2018-06-29T02:25:39.158Z,18.18
2018-06-29T02:28:08.264Z,17.96
2018-06-29T02:30:37.244Z,17.86
2018-06-29T02:33:06.288Z,17.81
2018-06-29T02:35:35.233Z,17.75
2018-06-29T02:38:04.252Z,17.70
2018-06-29T02:40:33.104Z,17.66
2018-06-29T02:43:02.045Z,17.66
2018-06-29T02:45:30.904Z,17.60
2018-06-29T02:47:59.785Z,17.62
2018-06-29T02:50:28.636Z,17.58
2018-06-29T02:52:57.688Z,17.57
2018-06-29T02:55:26.539Z,17.76
2018-06-29T02:57:55.405Z,17.53
2018-06-29T03:00:24.283Z,17.48
2018-06-29T03:02:53.176Z,17.50
2018-06-29T03:05:22.086Z,17.49
2018-06-29T03:07:50.996Z,17.48
2018-06-29T03:10:19.926Z,17.40
2018-06-29T03:12:48.833Z,17.41
2018-06-29T03:15:17.722Z,17.40
2018-06-29T03:17:46.641Z,17.38
2018-06-29T03:20:15.543Z,17.37
2018-06-29T03:22:44.422Z,17.30
2018-06-29T03:25:13.353Z,17.28
2018-06-29T03:27:42.201Z,17.27
2018-06-29T03:30:11.049Z,17.48
2018-06-29T03:32:39.886Z,17.33
2018-06-29T03:35:08.904Z,17.27
2018-06-29T03:37:37.766Z,17.25
2018-06-29T03:40:06.644Z,17.22
2018-06-29T03:42:35.536Z,17.22
2018-06-29T03:45:04.486Z,17.19
2018-06-29T03:47:33.334Z,17.21
2018-06-29T03:50:02.203Z,17.19
2018-06-29T03:52:31.037Z,17.25
2018-06-29T03:54:59.894Z,17.24
2018-06-29T03:57:31.763Z,17.28
2018-06-29T04:00:00.633Z,17.28
2018-06-29T04:02:29.508Z,17.26
2018-06-29T04:04:58.348Z,17.52
2018-06-29T04:07:27.203Z,17.44
2018-06-29T04:09:56.064Z,17.43
2018-06-29T04:12:24.992Z,17.66
2018-06-29T04:14:53.862Z,17.48
2018-06-29T04:17:22.727Z,17.68
2018-06-29T04:19:52.998Z,17.53
2018-06-29T04:22:21.890Z,17.51
2018-06-29T04:24:50.785Z,17.54
2018-06-29T04:27:19.684Z,17.52
2018-06-29T04:29:48.540Z,17.48
2018-06-29T04:32:17.442Z,17.47
2018-06-29T04:34:46.325Z,17.48
2018-06-29T04:37:15.178Z,17.70
2018-06-29T04:39:44.037Z,17.55
2018-06-29T04:42:15.836Z,17.55
2018-06-29T04:44:44.693Z,17.52
2018-06-29T04:47:13.578Z,17.54
2018-06-29T04:49:42.494Z,17.58
2018-06-29T04:52:11.369Z,17.60
2018-06-29T04:54:40.287Z,17.66
2018-06-29T04:57:09.134Z,17.68
2018-06-29T04:59:38.021Z,17.72
2018-06-29T05:02:06.886Z,17.76
2018-06-29T05:04:35.830Z,17.95
2018-06-29T05:07:04.709Z,17.90
2018-06-29T05:09:33.741Z,17.89
2018-06-29T05:12:02.618Z,17.91
2018-06-29T05:14:31.502Z,17.95
2018-06-29T05:17:00.353Z,18.01
2018-06-29T05:19:29.228Z,18.05
2018-06-29T05:21:58.088Z,18.09
2018-06-29T05:24:27.190Z,18.15
2018-06-29T05:26:56.177Z,18.17
2018-06-29T05:29:25.078Z,18.13
2018-06-29T05:31:53.903Z,18.15
2018-06-29T05:34:22.848Z,18.11
2018-06-29T05:36:51.711Z,18.19
2018-06-29T05:39:20.598Z,18.24
2018-06-29T05:41:49.432Z,18.36
2018-06-29T05:44:18.298Z,18.43
2018-06-29T05:46:47.186Z,18.50
2018-06-29T05:49:16.127Z,18.57
2018-06-29T05:51:44.975Z,18.70
2018-06-29T05:54:13.810Z,18.87
2018-06-29T05:56:42.663Z,19.03
2018-06-29T05:59:11.523Z,19.19
2018-06-29T06:01:40.804Z,19.38
2018-06-29T06:04:10.021Z,19.64
2018-06-29T06:06:38.876Z,19.90
2018-06-29T06:09:09.504Z,20.14
2018-06-29T06:11:38.365Z,20.47
2018-06-29T06:14:07.342Z,20.83
2018-06-29T06:16:36.190Z,21.20
2018-06-29T06:19:41.728Z,21.58
2018-06-29T06:22:10.577Z,22.08
2018-06-29T06:24:39.439Z,22.53
2018-06-29T06:27:08.321Z,23.02
2018-06-29T06:30:13.352Z,23.45
2018-06-29T06:32:42.326Z,24.33
2018-06-29T06:35:11.198Z,26.61
2018-06-29T06:37:40.037Z,29.10
2018-06-29T06:40:08.896Z,30.98
2018-06-29T06:42:37.732Z,32.26
2018-06-29T06:45:06.688Z,33.46
2018-06-29T06:47:35.529Z,34.51
2018-06-29T06:50:04.395Z,35.30
2018-06-29T06:52:33.273Z,35.76
2018-06-29T06:55:02.184Z,36.04
2018-06-29T06:57:31.068Z,36.39
2018-06-29T06:59:59.962Z,36.96
2018-06-29T07:02:28.835Z,37.53
2018-06-29T07:04:57.718Z,37.76
2018-06-29T07:07:26.586Z,38.03
2018-06-29T07:09:55.383Z,38.17
2018-06-29T07:12:24.288Z,38.15
2018-06-29T07:14:53.131Z,38.61
2018-06-29T07:17:22.015Z,39.23
2018-06-29T07:19:50.897Z,39.03
2018-06-29T07:22:19.780Z,39.37
2018-06-29T07:24:48.656Z,39.71
2018-06-29T07:27:17.561Z,40.07
2018-06-29T07:29:46.435Z,39.93
2018-06-29T07:32:15.360Z,40.35
2018-06-29T07:34:44.228Z,39.69
2018-06-29T07:37:13.166Z,40.12
2018-06-29T07:39:42.009Z,39.91
2018-06-29T07:42:10.917Z,40.01
2018-06-29T07:44:39.757Z,40.64
2018-06-29T07:47:08.596Z,40.50
2018-06-29T07:49:37.459Z,40.52
2018-06-29T07:52:06.278Z,40.81
2018-06-29T07:54:35.150Z,40.85
2018-06-29T07:57:04.047Z,40.67
2018-06-29T07:59:32.923Z,40.50
2018-06-29T08:02:01.797Z,40.68
2018-06-29T08:04:30.624Z,41.21
2018-06-29T08:06:59.512Z,41.11
2018-06-29T08:09:28.371Z,41.43
2018-06-29T08:11:57.252Z,41.60
2018-06-29T08:14:26.095Z,41.28
2018-06-29T08:16:55.057Z,41.82
2018-06-29T08:19:23.850Z,42.40
2018-06-29T08:21:52.742Z,42.40
2018-06-29T08:24:21.642Z,42.46
2018-06-29T08:26:50.480Z,42.30
2018-06-29T08:29:19.364Z,42.09
2018-06-29T08:31:48.217Z,42.65
2018-06-29T08:34:17.071Z,42.97
2018-06-29T08:36:45.964Z,42.69
2018-06-29T08:39:14.767Z,42.83
2018-06-29T08:41:43.603Z,42.78
2018-06-29T08:44:12.612Z,42.61
2018-06-29T08:46:41.492Z,42.08
2018-06-29T08:49:10.323Z,42.24
2018-06-29T08:51:39.215Z,42.62
2018-06-29T08:54:08.114Z,42.70
2018-06-29T08:56:36.994Z,42.76
2018-06-29T08:59:05.881Z,42.79
2018-06-29T09:01:34.780Z,42.69
2018-06-29T09:04:03.665Z,43.02
2018-06-29T09:06:32.601Z,42.77
2018-06-29T09:09:01.722Z,42.87
2018-06-29T09:11:30.588Z,42.58
2018-06-29T09:13:59.449Z,42.77
2018-06-29T09:16:28.300Z,43.05
2018-06-29T09:18:57.179Z,43.10
2018-06-29T09:21:26.035Z,42.91
2018-06-29T09:23:54.869Z,42.94
2018-06-29T09:26:23.733Z,42.89
2018-06-29T09:29:10.089Z,42.40
2018-06-29T09:31:38.951Z,42.78
2018-06-29T09:34:07.819Z,42.42
2018-06-29T09:36:36.717Z,42.64
2018-06-29T09:39:08.001Z,42.52
2018-06-29T09:41:36.865Z,42.01
2018-06-29T09:44:05.797Z,42.22
2018-06-29T09:46:34.980Z,42.36
2018-06-29T09:49:04.073Z,43.03
2018-06-29T09:51:32.969Z,42.33
2018-06-29T09:54:01.872Z,42.18
2018-06-29T09:56:30.688Z,42.25
2018-06-29T09:58:59.516Z,42.22
2018-06-29T10:01:28.637Z,42.34
2018-06-29T10:03:57.296Z,41.60
2018-06-29T10:06:26.175Z,41.03
2018-06-29T10:08:55.029Z,41.23
2018-06-29T10:11:59.505Z,41.37
2018-06-29T10:14:28.502Z,41.67
2018-06-29T10:16:57.266Z,41.91
2018-06-29T10:19:26.127Z,42.02
2018-06-29T10:21:54.976Z,42.19
2018-06-29T10:24:24.054Z,42.21
2018-06-29T10:26:52.900Z,41.80
2018-06-29T10:29:21.759Z,41.68
2018-06-29T10:31:50.600Z,41.58
2018-06-29T10:34:26.776Z,41.27
2018-06-29T10:36:55.652Z,41.94
2018-06-29T10:39:24.514Z,41.55
2018-06-29T10:41:53.398Z,41.69
2018-06-29T10:44:22.227Z,41.63
2018-06-29T10:46:51.119Z,41.11
2018-06-29T10:49:19.974Z,41.23
2018-06-29T10:51:48.848Z,40.86
2018-06-29T10:54:17.685Z,41.13
2018-06-29T10:56:50.529Z,41.23
2018-06-29T10:59:19.381Z,40.93
2018-06-29T11:01:48.260Z,41.01
2018-06-29T11:04:17.138Z,41.17
2018-06-29T11:06:46.019Z,40.93
2018-06-29T11:09:14.882Z,40.97
2018-06-29T11:11:43.743Z,40.52
2018-06-29T11:14:12.598Z,40.99
2018-06-29T11:16:41.436Z,40.78
2018-06-29T11:19:13.598Z,40.47
2018-06-29T11:21:42.440Z,40.50
2018-06-29T11:24:11.330Z,40.54
2018-06-29T11:26:40.174Z,40.37
2018-06-29T11:29:09.008Z,40.14
2018-06-29T11:31:37.883Z,40.33
2018-06-29T11:34:06.951Z,40.01
2018-06-29T11:36:36.051Z,40.04
2018-06-29T11:39:08.090Z,39.60
2018-06-29T11:41:36.925Z,39.59
2018-06-29T11:44:05.886Z,39.46
2018-06-29T11:46:34.811Z,39.38
2018-06-29T11:49:03.643Z,40.07
2018-06-29T11:51:32.566Z,39.75
2018-06-29T11:54:01.545Z,39.62
2018-06-29T11:56:30.446Z,39.60
2018-06-29T11:58:59.433Z,39.61
2018-06-29T12:01:36.884Z,39.55
2018-06-29T12:04:05.791Z,39.11
2018-06-29T12:06:34.655Z,38.63
2018-06-29T12:09:03.903Z,37.99
2018-06-29T12:11:32.857Z,37.75
2018-06-29T12:14:01.741Z,37.22
2018-06-29T12:16:30.744Z,36.62
2018-06-29T12:18:59.937Z,36.29
2018-06-29T12:21:29.150Z,35.83
2018-06-29T12:23:58.323Z,35.45
2018-06-29T12:26:27.390Z,35.37
2018-06-29T12:28:56.220Z,35.23
2018-06-29T12:31:25.408Z,35.01
2018-06-29T12:33:54.611Z,34.83
2018-06-29T12:36:23.725Z,34.14
2018-06-29T12:38:52.725Z,34.15
2018-06-29T12:41:21.898Z,34.00
2018-06-29T12:43:50.959Z,33.91
2018-06-29T12:46:19.980Z,33.90
2018-06-29T12:48:49.124Z,33.82
2018-06-29T12:51:18.209Z,33.61
2018-06-29T12:53:47.070Z,33.58
2018-06-29T12:56:16.020Z,33.56
2018-06-29T12:58:45.166Z,33.50
2018-06-29T13:01:14.223Z,33.56
2018-06-29T13:03:43.391Z,33.42
2018-06-29T13:06:15.340Z,33.23
2018-06-29T13:08:44.302Z,33.02
2018-06-29T13:11:13.489Z,33.04
2018-06-29T13:13:42.607Z,32.94
2018-06-29T13:16:11.969Z,32.87
2018-06-29T13:18:41.124Z,32.88
2018-06-29T13:21:10.318Z,32.87
2018-06-29T13:23:39.292Z,32.83
2018-06-29T13:26:08.540Z,32.82
2018-06-29T13:28:37.604Z,32.84
2018-06-29T13:31:06.846Z,32.71
2018-06-29T13:33:35.980Z,32.73
2018-06-29T13:36:05.087Z,32.77
2018-06-29T13:38:36.727Z,32.72
2018-06-29T13:41:05.713Z,32.67
2018-06-29T13:43:34.751Z,32.56
2018-06-29T13:46:04.177Z,32.47
2018-06-29T13:48:33.029Z,32.55
2018-06-29T13:51:02.149Z,32.46
2018-06-29T13:53:31.430Z,32.49
2018-06-29T13:56:00.520Z,32.44
2018-06-29T13:58:29.735Z,32.35
2018-06-29T14:00:58.961Z,32.36
2018-06-29T14:03:28.026Z,32.37
2018-06-29T14:05:57.145Z,32.17
2018-06-29T14:08:27.609Z,32.20
2018-06-29T14:10:56.884Z,32.26
2018-06-29T14:13:25.826Z,32.18
2018-06-29T14:15:55.096Z,32.18
2018-06-29T14:18:24.189Z,32.20
2018-06-29T14:20:53.303Z,32.21
2018-06-29T14:23:22.490Z,31.95
2018-06-29T14:25:51.453Z,31.88
2018-06-29T14:28:20.441Z,31.96
2018-06-29T14:30:49.758Z,32.02
2018-06-29T14:33:18.837Z,31.98
2018-06-29T14:35:48.190Z,32.00
2018-06-29T14:38:17.312Z,31.93
2018-06-29T14:40:46.293Z,31.90
2018-06-29T14:43:15.212Z,31.85
2018-06-29T14:45:44.096Z,31.70
2018-06-29T14:48:13.412Z,31.87
2018-06-29T14:50:45.400Z,31.82
2018-06-29T14:53:14.535Z,31.92
2018-06-29T14:55:43.704Z,31.93
2018-06-29T14:58:16.771Z,31.98
2018-06-29T15:00:46.280Z,31.85
2018-06-29T15:03:15.338Z,31.82
2018-06-29T15:05:44.490Z,31.83
2018-06-29T15:08:13.811Z,31.87
2018-06-29T15:10:45.288Z,31.83
2018-06-29T15:13:17.106Z,31.86
2018-06-29T15:15:51.482Z,31.69
2018-06-29T15:18:21.030Z,31.66
2018-06-29T15:20:50.401Z,31.69
2018-06-29T15:23:19.792Z,31.74
2018-06-29T15:25:51.162Z,31.73
2018-06-29T15:28:23.465Z,31.74
2018-06-29T15:30:54.670Z,31.70
2018-06-29T15:33:24.275Z,31.63
2018-06-29T15:35:56.994Z,31.53
2018-06-29T15:38:26.492Z,31.52
2018-06-29T15:41:02.154Z,31.56
2018-06-29T15:43:37.555Z,31.35
2018-06-29T15:46:09.996Z,31.20
2018-06-29T15:48:38.885Z,31.18
2018-06-29T15:51:08.441Z,31.26
2018-06-29T15:53:37.291Z,31.18
2018-06-29T15:56:06.314Z,31.08
2018-06-29T15:58:35.188Z,31.07
2018-06-29T16:01:04.076Z,31.09
2018-06-29T16:03:33.023Z,31.09
2018-06-29T16:06:01.939Z,31.04
2018-06-29T16:08:30.883Z,30.99
2018-06-29T16:10:59.850Z,30.89
2018-06-29T16:13:28.804Z,30.80
2018-06-29T16:15:57.918Z,30.80
2018-06-29T16:18:26.925Z,30.77
2018-06-29T16:20:55.783Z,30.66
2018-06-29T16:23:24.696Z,30.59
2018-06-29T16:25:53.576Z,30.53
2018-06-29T16:28:22.644Z,30.52
2018-06-29T16:30:51.559Z,30.42
2018-06-29T16:33:20.510Z,30.36
2018-06-29T16:35:49.473Z,30.32
2018-06-29T16:38:18.264Z,30.33
2018-06-29T16:40:47.154Z,30.26
2018-06-29T16:43:16.000Z,30.27
2018-06-29T16:45:44.891Z,30.18
2018-06-29T16:48:13.804Z,30.01
2018-06-29T16:50:42.693Z,29.95
2018-06-29T16:53:11.557Z,29.82
2018-06-29T16:55:40.458Z,29.71
2018-06-29T16:58:09.452Z,29.69
2018-06-29T17:00:38.233Z,29.66
2018-06-29T17:03:07.144Z,29.58
2018-06-29T17:05:36.043Z,29.54
2018-06-29T17:08:05.345Z,29.48
2018-06-29T17:10:34.264Z,29.46
2018-06-29T17:13:03.110Z,29.45
2018-06-29T17:15:32.093Z,29.39
2018-06-29T17:18:00.982Z,29.31
2018-06-29T17:20:29.862Z,29.25
2018-06-29T17:22:58.834Z,29.20
2018-06-29T17:25:27.646Z,29.13
2018-06-29T17:27:56.533Z,29.04
2018-06-29T17:30:25.516Z,28.99
2018-06-29T17:32:54.450Z,28.98
2018-06-29T17:35:23.327Z,28.88
2018-06-29T17:37:52.307Z,28.80
2018-06-29T17:40:21.275Z,28.68
2018-06-29T17:42:50.193Z,28.67
2018-06-29T17:45:19.053Z,28.59
2018-06-29T17:47:48.027Z,28.52
2018-06-29T17:50:16.923Z,28.47
2018-06-29T17:52:45.883Z,28.30
2018-06-29T17:55:14.813Z,28.25
2018-06-29T17:57:43.751Z,28.10
2018-06-29T18:00:12.692Z,28.09
2018-06-29T18:02:44.562Z,28.07
2018-06-29T18:05:13.526Z,28.03
2018-06-29T18:07:42.468Z,27.96
2018-06-29T18:10:11.435Z,27.79
2018-06-29T18:12:40.329Z,27.78
2018-06-29T18:15:09.131Z,27.72
2018-06-29T18:17:38.304Z,27.66
2018-06-29T18:20:07.142Z,27.62
2018-06-29T18:22:36.370Z,27.57
2018-06-29T18:25:05.411Z,27.46
2018-06-29T18:27:34.231Z,27.38
2018-06-29T18:30:03.110Z,27.35
2018-06-29T18:32:32.095Z,27.32
2018-06-29T18:35:01.193Z,27.28
2018-06-29T18:37:30.048Z,27.28
2018-06-29T18:39:58.889Z,27.16
2018-06-29T18:42:27.931Z,27.09
2018-06-29T18:44:56.921Z,27.04
2018-06-29T18:47:37.672Z,26.96
2018-06-29T18:50:06.570Z,26.83
2018-06-29T18:52:35.417Z,26.63
2018-06-29T18:55:04.403Z,26.57
2018-06-29T18:57:33.329Z,26.48
2018-06-29T19:00:02.177Z,26.36
2018-06-29T19:02:31.003Z,26.23
2018-06-29T19:04:59.898Z,26.18
2018-06-29T19:07:28.763Z,26.18
2018-06-29T19:09:58.842Z,26.02
2018-06-29T19:12:27.689Z,25.98
2018-06-29T19:14:56.709Z,25.91
2018-06-29T19:17:25.477Z,25.80
2018-06-29T19:19:54.396Z,25.55
2018-06-29T19:22:23.278Z,25.50
2018-06-29T19:24:52.232Z,25.50
2018-06-29T19:27:21.186Z,25.37
2018-06-29T19:29:49.950Z,25.31
2018-06-29T19:32:18.917Z,25.24
2018-06-29T19:34:47.755Z,25.14
2018-06-29T19:37:16.652Z,25.05
2018-06-29T19:39:45.539Z,24.97
2018-06-29T19:42:14.480Z,24.87
2018-06-29T19:44:43.512Z,24.75
2018-06-29T19:47:12.388Z,24.71
2018-06-29T19:49:41.317Z,24.58
2018-06-29T19:52:10.153Z,24.55
2018-06-29T19:54:39.062Z,24.48
2018-06-29T19:57:07.904Z,24.42
2018-06-29T19:59:36.750Z,24.34
2018-06-29T20:02:07.867Z,24.31
2018-06-29T20:04:34.665Z,24.30
2018-06-29T20:07:03.528Z,24.22
2018-06-29T20:09:32.412Z,24.14
2018-06-29T20:12:01.372Z,24.00
2018-06-29T20:14:30.351Z,23.93
2018-06-29T20:16:59.172Z,23.85
2018-06-29T20:19:28.077Z,23.75
2018-06-29T20:21:57.037Z,23.66
2018-06-29T20:24:25.843Z,23.58
2018-06-29T20:26:54.852Z,23.49
2018-06-29T20:29:23.869Z,23.39
2018-06-29T20:31:52.728Z,23.30
2018-06-29T20:34:21.688Z,23.19
2018-06-29T20:36:50.594Z,23.08
2018-06-29T20:39:19.515Z,23.00
2018-06-29T20:41:48.397Z,22.96
2018-06-29T20:44:17.487Z,22.94
2018-06-29T20:46:46.375Z,22.84
2018-06-29T20:49:15.386Z,22.75
2018-06-29T20:51:44.270Z,22.65
2018-06-29T20:54:13.165Z,22.58
2018-06-29T20:56:42.150Z,22.53
2018-06-29T20:59:11.015Z,22.49
2018-06-29T21:01:40.020Z,22.45
2018-06-29T21:04:08.947Z,22.33
2018-06-29T21:06:37.916Z,22.29
2018-06-29T21:09:08.347Z,22.21
2018-06-29T21:11:37.241Z,22.13
2018-06-29T21:14:06.197Z,22.13
2018-06-29T21:16:35.187Z,22.00
2018-06-29T21:19:04.308Z,21.86
2018-06-29T21:21:33.229Z,21.83
2018-06-29T21:24:02.183Z,21.59
2018-06-29T21:26:31.284Z,21.55
2018-06-29T21:29:00.349Z,21.54
2018-06-29T21:31:29.486Z,21.53
2018-06-29T21:33:58.341Z,21.51
2018-06-29T21:36:29.733Z,21.45
2018-06-29T21:38:58.689Z,21.40
2018-06-29T21:41:27.613Z,21.35
2018-06-29T21:43:56.628Z,21.32
2018-06-29T21:46:25.639Z,21.23
2018-06-29T21:48:54.575Z,21.18
2018-06-29T21:51:23.588Z,21.13
2018-06-29T21:53:52.567Z,20.99
2018-06-29T21:56:21.453Z,20.94
2018-06-29T21:58:50.394Z,20.95
2018-06-29T22:01:19.417Z,20.93
2018-06-29T22:03:48.334Z,20.88
2018-06-29T22:06:19.675Z,20.87
2018-06-29T22:08:48.666Z,20.82
2018-06-29T22:11:17.579Z,20.70
2018-06-29T22:13:46.860Z,20.68
2018-06-29T22:16:15.774Z,20.68
2018-06-29T22:18:44.644Z,20.62
2018-06-29T22:21:13.675Z,20.52
2018-06-29T22:23:42.696Z,20.44
2018-06-29T22:26:11.532Z,20.46
2018-06-29T22:28:40.479Z,20.39
2018-06-29T22:31:09.418Z,20.37
2018-06-29T22:33:38.388Z,20.34
2018-06-29T22:36:07.292Z,20.13
2018-06-29T22:38:36.278Z,20.08
2018-06-29T22:41:05.329Z,20.13
2018-06-29T22:43:34.304Z,20.11
2018-06-29T22:46:03.282Z,20.11
2018-06-29T22:48:38.406Z,20.11
2018-06-29T22:51:07.300Z,19.99
2018-06-29T22:53:36.333Z,19.90
2018-06-29T22:56:05.256Z,19.88
2018-06-29T22:58:34.180Z,19.85
2018-06-29T23:01:03.124Z,19.82
2018-06-29T23:03:49.767Z,19.75
2018-06-29T23:06:18.666Z,19.68
2018-06-29T23:08:54.969Z,19.57
2018-06-29T23:11:23.882Z,19.53
2018-06-29T23:13:52.717Z,19.53
2018-06-29T23:16:21.835Z,19.45
2018-06-29T23:18:50.863Z,19.42
2018-06-29T23:21:19.774Z,19.37
2018-06-29T23:23:48.647Z,19.32
2018-06-29T23:26:17.573Z,19.26
2018-06-29T23:28:46.490Z,19.19
2018-06-29T23:31:15.385Z,19.20
2018-06-29T23:33:44.347Z,19.22
2018-06-29T23:36:13.303Z,19.19
2018-06-29T23:38:42.312Z,19.18
2018-06-29T23:41:11.226Z,19.15
2018-06-29T23:43:40.178Z,19.07
2018-06-29T23:46:09.183Z,18.96
2018-06-29T23:48:38.132Z,18.96
2018-06-29T23:51:07.298Z,18.90
2018-06-29T23:53:36.236Z,18.90
2018-06-29T23:56:05.155Z,19.04
2018-06-29T23:58:34.092Z,18.93
